KLWS/LWS METAR and TAF weather

Enter ICAO airport designator
Station Type Date Time Source
KLWS METAR 2019/02/22 23:56 UTC NOAA

KLWS 222356Z 23004KT 10SM OVC090 M03/M08 A3000 RMK AO2 SLP178 T10281078 11022 21050 56007


Station Type Date Time Source
KLWS Decoded METAR 2019/02/22 23:56 UTC NOAA

LEWISTON NEZ PERCE CO AIRPORT , ID, United States (KLWS) 46-22N 117-01W 438M
Feb 22, 2019 - 06:56 PM EST / 2019.02.22 2356 UTC
Wind: from the SW (230 degrees) at 5 MPH (4 KT):0
Visibility: 10 mile(s):0
Sky conditions: overcast
Temperature: 27.0 F (-2.8 C)
Windchill: 21 F (-6 C):1
Dew Point: 18.0 F (-7.8 C)
Relative Humidity: 68%
Pressure (altimeter): 30 in. Hg (1015 hPa)
Pressure tendency: 0.02 inches (0.7 hPa) lower than three hours ago
ob: KLWS 222356Z 23004KT 10SM OVC090 M03/M08 A3000 RMK AO2 SLP178 T10281078 11022 21050 56007
cycle: 0

Station Type Date Time Source
KLWS TAF 2019/02/22 18:36 UTC NOAA

TAF KLWS 221735Z 2218/2318 12006KT P6SM SCT200
FM222000 16009KT P6SM BKN050 OVC080
FM230300 18008KT P6SM -SN OVC010
FM231100 20004KT P6SM OVC025
FM231400 22004KT P6SM BKN100


Example: see airport list